Time;durP1;ratioP1;P1;durP2;ratioP2;P2;SDS_P1;SDS_P2;PMS_P1;PMS_P2;Temp;Humidity;BMP_temperature;BMP_pressure;BME280_temperature;BME280_humidity;BME280_pressure;Samples;Min_cycle;Max_cycle;Signal;HPM_P1;HPM_P2
2022/12/10 00:00:36;;;;;;;47.00;23.97;;;;;;;;;;4992130;28;20573;-64
2022/12/10 00:03:01;;;;;;;48.93;24.47;;;;;;;;;;5013372;28;20216;-64
2022/12/10 00:05:26;;;;;;;48.97;25.23;;;;;;;;;;4996138;28;20213;-64
2022/12/10 00:07:52;;;;;;;52.30;24.70;;;;;;;;;;4995154;28;20213;-64
2022/12/10 00:10:17;;;;;;;52.40;25.10;;;;;;;;;;4993860;28;20271;-64
2022/12/10 00:12:42;;;;;;;49.43;24.43;;;;;;;;;;4994852;28;20263;-64
2022/12/10 00:15:07;;;;;;;50.97;24.37;;;;;;;;;;4996952;28;20252;-64
2022/12/10 00:17:33;;;;;;;49.30;24.27;;;;;;;;;;5013843;28;20232;-64
2022/12/10 00:19:58;;;;;;;46.63;24.07;;;;;;;;;;5014590;28;20216;-64
2022/12/10 00:22:23;;;;;;;46.53;24.03;;;;;;;;;;5013870;28;20231;-64
2022/12/10 00:24:49;;;;;;;47.87;24.20;;;;;;;;;;5013703;28;20212;-64
2022/12/10 00:27:14;;;;;;;45.83;23.10;;;;;;;;;;5013586;28;20219;-64
2022/12/10 00:29:39;;;;;;;46.57;24.10;;;;;;;;;;4994603;28;20209;-64
2022/12/10 00:32:05;;;;;;;47.37;23.60;;;;;;;;;;4994981;28;20205;-64
2022/12/10 00:34:31;;;;;;;47.93;23.90;;;;;;;;;;4994793;28;20205;-64
2022/12/10 00:36:56;;;;;;;46.10;23.30;;;;;;;;;;4994224;28;20217;-64
2022/12/10 00:39:21;;;;;;;47.67;23.87;;;;;;;;;;5001095;28;20228;-64
2022/12/10 00:41:47;;;;;;;47.53;23.33;;;;;;;;;;4974918;28;20217;-64
2022/12/10 00:44:12;;;;;;;49.00;24.70;;;;;;;;;;4974455;28;20220;-64
2022/12/10 00:46:38;;;;;;;50.57;25.40;;;;;;;;;;4974146;28;20206;-64
2022/12/10 00:49:03;;;;;;;46.93;23.40;;;;;;;;;;4973278;28;20305;-64
2022/12/10 00:51:28;;;;;;;45.33;24.10;;;;;;;;;;4974224;28;20268;-64
2022/12/10 00:53:54;;;;;;;48.93;24.27;;;;;;;;;;4974931;28;20265;-64
2022/12/10 00:56:21;;;;;;;47.50;24.27;;;;;;;;;;4974416;28;20217;-64
2022/12/10 00:58:47;;;;;;;47.87;24.20;;;;;;;;;;4974990;28;21068;-64
2022/12/10 01:01:13;;;;;;;48.37;24.43;;;;;;;;;;5011325;28;20212;-64
2022/12/10 01:03:39;;;;;;;47.20;23.20;;;;;;;;;;5003943;28;20216;-64
2022/12/10 01:06:11;;;;;;;47.83;23.33;;;;;;;;;;5012484;28;20209;-64
2022/12/10 01:08:36;;;;;;;47.23;24.00;;;;;;;;;;5013383;28;20695;-64
2022/12/10 01:11:02;;;;;;;46.03;24.07;;;;;;;;;;5013188;28;20212;-64
2022/12/10 01:13:27;;;;;;;48.67;24.67;;;;;;;;;;5012534;28;20299;-64
2022/12/10 01:15:52;;;;;;;49.47;24.80;;;;;;;;;;5004639;28;20209;-64
2022/12/10 01:18:17;;;;;;;47.50;24.83;;;;;;;;;;4993381;28;20221;-64
2022/12/10 01:20:43;;;;;;;49.93;25.03;;;;;;;;;;4993082;28;20213;-64
2022/12/10 01:23:08;;;;;;;47.03;23.00;;;;;;;;;;4993279;28;20216;-64
2022/12/10 01:25:33;;;;;;;46.27;24.20;;;;;;;;;;4993983;28;20684;-64
2022/12/10 01:27:59;;;;;;;49.27;24.30;;;;;;;;;;4992806;28;20225;-64
2022/12/10 01:30:24;;;;;;;48.97;24.23;;;;;;;;;;4993074;28;20564;-64
2022/12/10 01:32:49;;;;;;;49.77;24.13;;;;;;;;;;4993496;28;20217;-64
2022/12/10 01:35:14;;;;;;;47.23;23.90;;;;;;;;;;4992533;28;20232;-64
2022/12/10 01:37:40;;;;;;;50.93;26.10;;;;;;;;;;4993420;28;20229;-64
2022/12/10 01:40:05;;;;;;;51.57;25.53;;;;;;;;;;4993055;28;20303;-64
2022/12/10 01:42:31;;;;;;;48.70;23.20;;;;;;;;;;4992798;28;20217;-64
2022/12/10 01:44:57;;;;;;;47.30;23.90;;;;;;;;;;4992915;28;20217;-64
2022/12/10 01:47:22;;;;;;;50.63;24.73;;;;;;;;;;4991695;28;20606;-64
2022/12/10 01:49:47;;;;;;;49.00;23.37;;;;;;;;;;4991388;28;20719;-64
2022/12/10 01:52:13;;;;;;;48.27;23.97;;;;;;;;;;4992964;28;20586;-64
2022/12/10 01:54:39;;;;;;;48.00;23.67;;;;;;;;;;4993178;28;20204;-64
2022/12/10 01:57:06;;;;;;;47.03;23.93;;;;;;;;;;5004563;28;20596;-64
2022/12/10 01:59:31;;;;;;;47.37;23.30;;;;;;;;;;5005446;28;20209;-64
2022/12/10 02:02:03;;;;;;;47.87;23.37;;;;;;;;;;4991127;28;20217;-64
2022/12/10 02:04:38;;;;;;;45.47;23.37;;;;;;;;;;4992617;28;20320;-64
2022/12/10 02:07:12;;;;;;;44.97;23.23;;;;;;;;;;4991508;28;20220;-64
2022/12/10 02:09:43;;;;;;;44.93;23.10;;;;;;;;;;4992318;28;20233;-64
2022/12/10 02:12:14;;;;;;;50.37;25.13;;;;;;;;;;4992786;28;20225;-64
2022/12/10 02:14:51;;;;;;;46.90;23.07;;;;;;;;;;4991604;28;20299;-64
2022/12/10 02:17:19;;;;;;;46.07;24.37;;;;;;;;;;5006774;28;21104;-64
2022/12/10 02:19:59;;;;;;;46.40;24.17;;;;;;;;;;4993022;28;20236;-64
2022/12/10 02:22:25;;;;;;;45.60;22.93;;;;;;;;;;4992682;28;20209;-64
2022/12/10 02:24:50;;;;;;;47.30;23.37;;;;;;;;;;4991253;28;20221;-64
2022/12/10 02:27:21;;;;;;;49.57;25.47;;;;;;;;;;4992637;28;20224;-64
2022/12/10 02:29:46;;;;;;;47.77;23.77;;;;;;;;;;4991583;28;20213;-64
2022/12/10 02:32:19;;;;;;;49.03;24.03;;;;;;;;;;4991614;28;20220;-64
2022/12/10 02:34:50;;;;;;;48.53;24.23;;;;;;;;;;4991676;28;20660;-64
2022/12/10 02:37:22;;;;;;;47.13;23.37;;;;;;;;;;4991931;28;21020;-64
2022/12/10 02:39:48;;;;;;;48.60;25.07;;;;;;;;;;4999091;28;20208;-65
2022/12/10 02:42:13;;;;;;;45.90;23.67;;;;;;;;;;5010672;28;20697;-64
2022/12/10 02:44:39;;;;;;;49.03;24.57;;;;;;;;;;5011495;28;20785;-64
2022/12/10 02:47:04;;;;;;;49.40;24.57;;;;;;;;;;5011747;28;20347;-64
2022/12/10 02:49:29;;;;;;;46.97;24.47;;;;;;;;;;5012316;28;20212;-64
2022/12/10 02:51:54;;;;;;;47.50;23.60;;;;;;;;;;5011658;28;20236;-64
2022/12/10 02:54:37;;;;;;;46.33;22.93;;;;;;;;;;5011942;28;20259;-64
2022/12/10 02:57:08;;;;;;;42.97;22.60;;;;;;;;;;5000495;28;20248;-63
2022/12/10 02:59:40;;;;;;;45.60;23.50;;;;;;;;;;4997207;28;20567;-64
2022/12/10 03:02:09;;;;;;;47.00;23.50;;;;;;;;;;5013197;28;20216;-64
2022/12/10 03:04:52;;;;;;;47.40;23.87;;;;;;;;;;5008968;28;20232;-64
2022/12/10 03:07:18;;;;;;;50.73;25.07;;;;;;;;;;5014672;28;20605;-64
2022/12/10 03:09:45;;;;;;;47.70;24.43;;;;;;;;;;5006627;28;20262;-64
2022/12/10 03:12:15;;;;;;;50.97;25.90;;;;;;;;;;5014657;28;20221;-64
2022/12/10 03:14:40;;;;;;;50.03;24.50;;;;;;;;;;5006313;28;20219;-64
2022/12/10 03:17:05;;;;;;;48.20;24.80;;;;;;;;;;4996324;28;20233;-64
2022/12/10 03:19:32;;;;;;;47.87;24.60;;;;;;;;;;4993915;28;20692;-64
2022/12/10 03:21:57;;;;;;;45.73;24.13;;;;;;;;;;4994661;28;20578;-65
2022/12/10 03:24:23;;;;;;;45.20;23.43;;;;;;;;;;4995611;28;20221;-64
2022/12/10 03:26:48;;;;;;;49.73;24.60;;;;;;;;;;4993860;28;20251;-64
2022/12/10 03:29:16;;;;;;;49.70;24.77;;;;;;;;;;4994151;28;20221;-64
2022/12/10 03:31:41;;;;;;;45.33;23.33;;;;;;;;;;4994503;28;20216;-64
2022/12/10 03:34:06;;;;;;;47.53;24.00;;;;;;;;;;4994330;28;20217;-64
2022/12/10 03:36:31;;;;;;;46.67;24.17;;;;;;;;;;4995598;28;20771;-64
2022/12/10 03:38:57;;;;;;;47.93;24.07;;;;;;;;;;4994342;28;20256;-64
2022/12/10 03:41:22;;;;;;;47.83;24.67;;;;;;;;;;4994459;28;20244;-64
2022/12/10 03:43:54;;;;;;;49.17;24.27;;;;;;;;;;4995466;28;20688;-64
2022/12/10 03:46:19;;;;;;;47.10;23.43;;;;;;;;;;4995185;28;20602;-64
2022/12/10 03:48:45;;;;;;;51.13;24.43;;;;;;;;;;4993158;28;20676;-64
2022/12/10 03:51:10;;;;;;;45.97;23.43;;;;;;;;;;4995108;28;20217;-64
2022/12/10 03:53:35;;;;;;;49.73;25.20;;;;;;;;;;5014221;28;20227;-64
2022/12/10 03:56:01;;;;;;;49.07;24.47;;;;;;;;;;5009858;28;20229;-63
2022/12/10 03:58:26;;;;;;;50.67;25.67;;;;;;;;;;4995490;28;20661;-65
2022/12/10 04:00:51;;;;;;;52.50;25.17;;;;;;;;;;5001478;28;20225;-66
2022/12/10 04:03:16;;;;;;;52.03;24.83;;;;;;;;;;4984608;28;20695;-64
2022/12/10 04:05:42;;;;;;;50.43;25.13;;;;;;;;;;4985298;28;20220;-64
2022/12/10 04:08:07;;;;;;;52.47;24.83;;;;;;;;;;4984438;28;20576;-64
2022/12/10 04:10:36;;;;;;;48.60;25.03;;;;;;;;;;4984761;28;20207;-65
2022/12/10 04:18:29;;;;;;;50.50;24.63;;;;;;;;;;4973058;28;20232;-64
2022/12/10 04:26:51;;;;;;;49.73;24.13;;;;;;;;;;5003602;28;20302;-65
2022/12/10 04:29:17;;;;;;;51.33;25.73;;;;;;;;;;4998824;28;20630;-65
2022/12/10 04:31:42;;;;;;;51.83;25.83;;;;;;;;;;4984165;28;20217;-65
2022/12/10 04:34:07;;;;;;;52.10;25.87;;;;;;;;;;4984423;28;20224;-64
2022/12/10 04:36:33;;;;;;;51.50;26.33;;;;;;;;;;4979714;28;20225;-65
2022/12/10 04:38:58;;;;;;;53.77;25.20;;;;;;;;;;4977337;28;20217;-65
2022/12/10 04:41:23;;;;;;;52.70;26.40;;;;;;;;;;4976240;28;20675;-65
2022/12/10 04:43:48;;;;;;;49.93;25.13;;;;;;;;;;4999263;28;20521;-64
2022/12/10 04:46:14;;;;;;;56.57;26.07;;;;;;;;;;5002805;28;20240;-64
2022/12/10 04:48:39;;;;;;;55.13;25.37;;;;;;;;;;5003569;28;20208;-65
2022/12/10 04:51:04;;;;;;;55.30;26.73;;;;;;;;;;5002324;28;20247;-64
2022/12/10 04:53:30;;;;;;;59.73;27.73;;;;;;;;;;5003720;28;20244;-65
2022/12/10 04:55:55;;;;;;;54.47;25.67;;;;;;;;;;5000921;28;20303;-64
2022/12/10 04:58:20;;;;;;;53.90;26.60;;;;;;;;;;4981459;28;20700;-64
2022/12/10 05:00:45;;;;;;;52.13;26.60;;;;;;;;;;4976725;28;20209;-65
2022/12/10 05:03:11;;;;;;;53.67;26.33;;;;;;;;;;4975909;28;20256;-64
2022/12/10 05:05:36;;;;;;;64.90;29.10;;;;;;;;;;4976750;28;20201;-65
2022/12/10 05:08:01;;;;;;;63.03;29.40;;;;;;;;;;5002510;28;20835;-63
2022/12/10 05:10:27;;;;;;;67.47;29.60;;;;;;;;;;4986942;28;20272;-65
2022/12/10 05:12:52;;;;;;;65.83;30.27;;;;;;;;;;4983199;28;20311;-65
2022/12/10 05:15:17;;;;;;;58.90;28.13;;;;;;;;;;4983968;28;20251;-66
2022/12/10 05:17:42;;;;;;;61.30;29.03;;;;;;;;;;4985350;28;20320;-64
2022/12/10 05:20:08;;;;;;;67.07;30.23;;;;;;;;;;5001144;28;20224;-64
2022/12/10 05:25:17;;;;;;;64.90;29.57;;;;;;;;;;4977214;28;20580;-64
2022/12/10 05:27:42;;;;;;;71.50;32.63;;;;;;;;;;4975653;28;20205;-65
2022/12/10 05:30:09;;;;;;;69.13;31.20;;;;;;;;;;4986750;28;20225;-65
2022/12/10 05:32:34;;;;;;;69.33;29.90;;;;;;;;;;4992671;28;20216;-64
2022/12/10 05:34:59;;;;;;;71.23;32.30;;;;;;;;;;4992489;28;20220;-64
2022/12/10 05:37:25;;;;;;;68.63;30.70;;;;;;;;;;4992989;28;20229;-64
2022/12/10 05:39:50;;;;;;;69.40;31.13;;;;;;;;;;5000549;28;20274;-64
2022/12/10 05:42:15;;;;;;;67.30;31.03;;;;;;;;;;4994350;28;20213;-64
2022/12/10 05:44:40;;;;;;;73.47;32.33;;;;;;;;;;4993564;28;20246;-64
2022/12/10 05:47:06;;;;;;;70.23;30.17;;;;;;;;;;4991988;28;20220;-64
2022/12/10 05:49:31;;;;;;;64.83;30.50;;;;;;;;;;4993213;28;20209;-64
2022/12/10 05:51:56;;;;;;;74.63;31.97;;;;;;;;;;4984119;28;20220;-65
2022/12/10 05:54:21;;;;;;;76.73;32.77;;;;;;;;;;4995311;28;20274;-66
2022/12/10 05:56:47;;;;;;;77.27;32.53;;;;;;;;;;4992956;28;20225;-66
2022/12/10 05:59:12;;;;;;;76.57;32.10;;;;;;;;;;4982898;28;20209;-65
2022/12/10 06:01:37;;;;;;;83.07;33.33;;;;;;;;;;5001740;28;20204;-66
2022/12/10 06:04:03;;;;;;;74.47;30.17;;;;;;;;;;5002158;28;20388;-65
2022/12/10 06:06:29;;;;;;;71.97;31.40;;;;;;;;;;4996033;28;20711;-66
2022/12/10 06:08:55;;;;;;;85.43;33.20;;;;;;;;;;4989425;28;20227;-66
2022/12/10 06:11:20;;;;;;;85.60;32.23;;;;;;;;;;4989728;28;20221;-65
2022/12/10 06:13:45;;;;;;;80.50;32.80;;;;;;;;;;4982977;28;20213;-66
2022/12/10 06:16:11;;;;;;;75.47;32.97;;;;;;;;;;4984807;28;20211;-65
2022/12/10 06:18:36;;;;;;;82.40;33.70;;;;;;;;;;4996066;28;20224;-65
2022/12/10 06:21:03;;;;;;;76.90;30.63;;;;;;;;;;4984941;28;20213;-65
2022/12/10 06:23:29;;;;;;;84.97;34.43;;;;;;;;;;5001931;28;20219;-65
2022/12/10 06:25:54;;;;;;;77.07;32.60;;;;;;;;;;5002210;28;20216;-66
2022/12/10 06:28:19;;;;;;;89.80;34.33;;;;;;;;;;4998420;28;20228;-66
2022/12/10 06:30:45;;;;;;;79.50;31.83;;;;;;;;;;4994435;28;20841;-66
2022/12/10 06:33:10;;;;;;;90.30;34.70;;;;;;;;;;4979566;28;20252;-65
2022/12/10 06:35:36;;;;;;;73.87;33.10;;;;;;;;;;4982941;28;20227;-65
2022/12/10 06:38:02;;;;;;;86.87;35.23;;;;;;;;;;4985393;28;20240;-65
2022/12/10 06:40:27;;;;;;;89.80;34.17;;;;;;;;;;4993472;28;20212;-65
2022/12/10 06:42:52;;;;;;;73.73;31.93;;;;;;;;;;4986902;28;20221;-66
2022/12/10 06:45:17;;;;;;;79.93;33.73;;;;;;;;;;5000959;28;20631;-65
2022/12/10 06:47:43;;;;;;;90.00;34.90;;;;;;;;;;5006124;28;20258;-65
2022/12/10 06:50:08;;;;;;;84.13;34.40;;;;;;;;;;5003113;28;20223;-65
2022/12/10 06:52:33;;;;;;;76.53;33.57;;;;;;;;;;4998236;28;20221;-66
2022/12/10 06:54:59;;;;;;;80.57;33.20;;;;;;;;;;4997985;28;20410;-65
2022/12/10 06:57:24;;;;;;;78.23;32.33;;;;;;;;;;4997913;28;20634;-65
2022/12/10 06:59:49;;;;;;;82.43;31.57;;;;;;;;;;4987195;28;20228;-65
2022/12/10 07:02:15;;;;;;;127.97;32.53;;;;;;;;;;4986090;28;20221;-65
2022/12/10 07:04:40;;;;;;;68.97;29.93;;;;;;;;;;5004480;28;21130;-65
2022/12/10 07:07:06;;;;;;;75.53;30.17;;;;;;;;;;5002954;28;20255;-65
2022/12/10 07:09:31;;;;;;;81.03;31.27;;;;;;;;;;4990306;28;20205;-66
2022/12/10 07:11:57;;;;;;;76.33;32.30;;;;;;;;;;4985989;28;20232;-66
2022/12/10 07:14:23;;;;;;;75.97;32.33;;;;;;;;;;4983110;28;20574;-65
2022/12/10 07:16:49;;;;;;;73.77;30.80;;;;;;;;;;4981548;28;20247;-65
2022/12/10 07:19:14;;;;;;;76.17;30.67;;;;;;;;;;4976935;28;20221;-65
2022/12/10 07:21:40;;;;;;;75.10;28.13;;;;;;;;;;4985331;28;20280;-65
2022/12/10 07:24:06;;;;;;;69.23;28.53;;;;;;;;;;4985743;28;20224;-64
2022/12/10 07:26:34;;;;;;;73.13;28.93;;;;;;;;;;5004296;28;20223;-64
2022/12/10 07:28:59;;;;;;;76.63;30.67;;;;;;;;;;5005571;28;20232;-65
2022/12/10 07:31:25;;;;;;;89.10;31.73;;;;;;;;;;5000194;28;20700;-64
2022/12/10 07:33:50;;;;;;;99.53;32.20;;;;;;;;;;4985149;28;21267;-65
2022/12/10 07:36:15;;;;;;;97.13;31.83;;;;;;;;;;4981104;28;20216;-64
2022/12/10 07:38:41;;;;;;;97.97;31.37;;;;;;;;;;4988222;28;20220;-65
2022/12/10 07:41:08;;;;;;;72.70;31.10;;;;;;;;;;4977515;28;20217;-64
2022/12/10 07:43:34;;;;;;;80.07;31.83;;;;;;;;;;5000782;28;20739;-65
2022/12/10 07:46:05;;;;;;;87.80;30.97;;;;;;;;;;5005071;28;20672;-65
2022/12/10 07:48:30;;;;;;;210.47;33.70;;;;;;;;;;4984378;28;20217;-65
2022/12/10 07:50:56;;;;;;;90.43;29.27;;;;;;;;;;4999674;28;20216;-65
2022/12/10 07:53:21;;;;;;;72.50;28.20;;;;;;;;;;4984999;28;20225;-65
2022/12/10 07:55:47;;;;;;;93.80;31.63;;;;;;;;;;4982850;28;20271;-65
2022/12/10 07:58:12;;;;;;;84.97;27.30;;;;;;;;;;4966071;28;20230;-64
2022/12/10 08:00:37;;;;;;;85.73;26.70;;;;;;;;;;4992488;28;20209;-65
2022/12/10 08:03:03;;;;;;;77.53;27.30;;;;;;;;;;4994482;28;20244;-63
2022/12/10 08:05:28;;;;;;;69.40;27.60;;;;;;;;;;4995357;28;20221;-63
2022/12/10 08:07:53;;;;;;;69.00;28.27;;;;;;;;;;4994391;28;20213;-64
2022/12/10 08:10:19;;;;;;;90.43;31.80;;;;;;;;;;5001599;28;20560;-65
2022/12/10 08:12:44;;;;;;;95.63;39.15;;;;;;;;;;5012086;28;20426;-66
2022/12/10 08:15:09;;;;;;;72.63;31.53;;;;;;;;;;5002360;28;20213;-65
2022/12/10 08:17:35;;;;;;;109.10;32.43;;;;;;;;;;5003806;28;20216;-65
2022/12/10 08:20:00;;;;;;;81.90;30.37;;;;;;;;;;5004894;28;20229;-64
2022/12/10 08:22:25;;;;;;;95.77;39.43;;;;;;;;;;5001051;28;20429;-64
2022/12/10 08:24:51;;;;;;;72.93;30.60;;;;;;;;;;5004248;28;20278;-65
2022/12/10 08:27:16;;;;;;;78.30;31.23;;;;;;;;;;5003867;28;20607;-65
2022/12/10 08:29:41;;;;;;;66.70;28.47;;;;;;;;;;5002301;28;20680;-65
2022/12/10 08:32:06;;;;;;;78.67;29.67;;;;;;;;;;5004452;28;20204;-65
2022/12/10 08:34:32;;;;;;;64.17;26.47;;;;;;;;;;5003734;28;20205;-65
2022/12/10 08:36:57;;;;;;;62.57;27.50;;;;;;;;;;5002523;28;20738;-64
2022/12/10 08:39:22;;;;;;;71.87;28.47;;;;;;;;;;5003819;28;20235;-65
2022/12/10 08:41:48;;;;;;;68.63;28.40;;;;;;;;;;5004616;28;20274;-65
2022/12/10 08:44:13;;;;;;;66.47;28.27;;;;;;;;;;5002516;28;20241;-66
2022/12/10 08:46:38;;;;;;;62.03;26.00;;;;;;;;;;5002989;28;20213;-67
2022/12/10 08:49:04;;;;;;;79.63;34.17;;;;;;;;;;5003276;28;20774;-66
2022/12/10 08:51:29;;;;;;;72.87;30.03;;;;;;;;;;5002276;28;20575;-66
2022/12/10 08:53:54;;;;;;;73.23;26.83;;;;;;;;;;5002888;28;20204;-66
2022/12/10 08:56:20;;;;;;;76.80;28.20;;;;;;;;;;5001885;28;20224;-66
2022/12/10 08:58:45;;;;;;;74.20;26.90;;;;;;;;;;5004186;28;20208;-66
2022/12/10 09:01:11;;;;;;;69.33;26.77;;;;;;;;;;4993783;28;20204;-66
2022/12/10 09:03:37;;;;;;;65.93;26.97;;;;;;;;;;4996972;28;20221;-66
2022/12/10 09:06:04;;;;;;;80.90;28.23;;;;;;;;;;5002007;28;20223;-65
2022/12/10 09:08:30;;;;;;;79.40;29.70;;;;;;;;;;5004940;28;20260;-66
2022/12/10 09:10:55;;;;;;;93.83;30.50;;;;;;;;;;5003522;28;20288;-67
2022/12/10 09:13:20;;;;;;;76.23;30.27;;;;;;;;;;5001867;28;20299;-66
2022/12/10 09:15:49;;;;;;;74.00;29.50;;;;;;;;;;5002638;28;20255;-66
2022/12/10 09:18:15;;;;;;;71.20;27.83;;;;;;;;;;5000607;28;20220;-66
2022/12/10 09:20:40;;;;;;;74.97;27.90;;;;;;;;;;5003886;28;20281;-67
2022/12/10 09:23:05;;;;;;;74.87;29.53;;;;;;;;;;5001306;28;20307;-66
2022/12/10 09:25:30;;;;;;;83.20;28.43;;;;;;;;;;5002410;28;20205;-66
2022/12/10 09:27:56;;;;;;;85.87;30.10;;;;;;;;;;5003189;28;20213;-67
2022/12/10 09:30:21;;;;;;;81.53;30.00;;;;;;;;;;5001602;28;20213;-67
2022/12/10 09:32:46;;;;;;;74.37;29.07;;;;;;;;;;5003104;28;20213;-67
2022/12/10 09:35:12;;;;;;;76.80;29.03;;;;;;;;;;5002127;28;20205;-67
2022/12/10 09:37:37;;;;;;;79.20;29.57;;;;;;;;;;5002444;28;20236;-67
2022/12/10 09:40:03;;;;;;;76.97;29.17;;;;;;;;;;5002371;28;20220;-67
2022/12/10 09:42:32;;;;;;;87.70;30.87;;;;;;;;;;5004257;28;20668;-68
2022/12/10 09:45:00;;;;;;;70.30;27.87;;;;;;;;;;5001078;28;20216;-67
2022/12/10 09:47:35;;;;;;;89.13;29.90;;;;;;;;;;5002480;28;20262;-67
2022/12/10 09:50:04;;;;;;;78.73;29.57;;;;;;;;;;5001673;28;20212;-63
2022/12/10 09:52:33;;;;;;;80.67;31.43;;;;;;;;;;4993322;28;20574;-65
2022/12/10 09:54:59;;;;;;;76.13;29.57;;;;;;;;;;4995035;28;20213;-66
2022/12/10 09:57:24;;;;;;;70.53;28.40;;;;;;;;;;5001989;28;20291;-65
2022/12/10 09:59:50;;;;;;;74.07;28.13;;;;;;;;;;5003263;28;20212;-65
2022/12/10 10:02:15;;;;;;;85.50;29.97;;;;;;;;;;5000566;28;20337;-65
2022/12/10 10:04:40;;;;;;;75.20;28.40;;;;;;;;;;5001267;28;20225;-65
2022/12/10 10:07:05;;;;;;;71.77;28.43;;;;;;;;;;5001811;28;20237;-65
2022/12/10 10:09:31;;;;;;;86.47;29.67;;;;;;;;;;5001541;28;20213;-65
2022/12/10 10:11:57;;;;;;;70.87;27.87;;;;;;;;;;5003072;28;20223;-65
2022/12/10 10:14:25;;;;;;;67.03;26.93;;;;;;;;;;5001977;28;20547;-64
2022/12/10 10:16:52;;;;;;;66.73;27.07;;;;;;;;;;5000463;28;20250;-65
2022/12/10 10:19:20;;;;;;;68.10;27.83;;;;;;;;;;5001291;28;20197;-65
2022/12/10 10:21:46;;;;;;;66.10;26.13;;;;;;;;;;5001923;28;20209;-66
2022/12/10 10:24:13;;;;;;;70.07;28.47;;;;;;;;;;5000531;28;20197;-65
2022/12/10 10:26:38;;;;;;;81.77;28.63;;;;;;;;;;4995279;28;20209;-66
2022/12/10 10:29:05;;;;;;;86.47;35.27;;;;;;;;;;4989771;28;20416;-66
2022/12/10 10:31:31;;;;;;;70.43;29.17;;;;;;;;;;4991915;28;20205;-66
2022/12/10 10:33:57;;;;;;;72.63;27.70;;;;;;;;;;4992864;28;20220;-66
2022/12/10 10:36:27;;;;;;;72.90;26.97;;;;;;;;;;4991526;28;20603;-66
2022/12/10 10:38:52;;;;;;;72.37;27.93;;;;;;;;;;4996005;28;20219;-66
2022/12/10 10:41:17;;;;;;;75.60;30.30;;;;;;;;;;5011571;28;20213;-65
2022/12/10 10:43:44;;;;;;;76.80;33.73;;;;;;;;;;5011795;28;20763;-66
2022/12/10 10:46:12;;;;;;;97.73;32.57;;;;;;;;;;5011896;28;20212;-66
2022/12/10 10:48:37;;;;;;;88.23;37.73;;;;;;;;;;5012631;28;20209;-66
2022/12/10 10:51:08;;;;;;;78.80;31.07;;;;;;;;;;5011176;28;20235;-66
2022/12/10 10:53:33;;;;;;;76.73;31.77;;;;;;;;;;5011162;28;20289;-66
2022/12/10 10:56:06;;;;;;;76.77;28.73;;;;;;;;;;5008164;28;20284;-66
2022/12/10 10:58:31;;;;;;;82.90;31.00;;;;;;;;;;4991595;28;20220;-66
2022/12/10 11:00:59;;;;;;;76.00;31.10;;;;;;;;;;5011075;28;20220;-66
2022/12/10 11:03:25;;;;;;;78.83;29.87;;;;;;;;;;5010784;28;20566;-66
2022/12/10 11:05:50;;;;;;;86.10;31.67;;;;;;;;;;5010836;28;20220;-66
2022/12/10 11:08:17;;;;;;;94.87;34.30;;;;;;;;;;5011896;28;20209;-66
2022/12/10 11:10:46;;;;;;;89.67;30.97;;;;;;;;;;4997610;28;20217;-66
2022/12/10 11:13:22;;;;;;;132.33;49.10;;;;;;;;;;4992014;28;20221;-66
2022/12/10 11:15:53;;;;;;;79.47;30.60;;;;;;;;;;5000444;28;20655;-66
2022/12/10 11:18:23;;;;;;;81.60;30.93;;;;;;;;;;5011985;28;20694;-66
2022/12/10 11:20:56;;;;;;;86.17;30.30;;;;;;;;;;5014204;28;20582;-66
2022/12/10 11:23:21;;;;;;;94.87;31.80;;;;;;;;;;5015296;28;20227;-66
2022/12/10 11:25:50;;;;;;;88.73;30.23;;;;;;;;;;5014682;28;20208;-66
2022/12/10 11:28:25;;;;;;;93.50;32.10;;;;;;;;;;5013661;28;20221;-66
2022/12/10 11:30:56;;;;;;;90.10;31.10;;;;;;;;;;5014163;28;20212;-66
2022/12/10 11:33:25;;;;;;;85.73;31.00;;;;;;;;;;5014417;28;20267;-66
2022/12/10 11:35:53;;;;;;;92.20;31.60;;;;;;;;;;5013969;28;20239;-66
2022/12/10 11:38:24;;;;;;;83.43;29.93;;;;;;;;;;5013559;28;20224;-65
2022/12/10 11:40:50;;;;;;;93.43;30.77;;;;;;;;;;5014423;28;20283;-66
2022/12/10 11:43:24;;;;;;;92.70;30.97;;;;;;;;;;5013272;28;20220;-66
2022/12/10 11:45:53;;;;;;;90.03;31.50;;;;;;;;;;5005622;28;20225;-67
2022/12/10 11:48:37;;;;;;;79.90;28.67;;;;;;;;;;4994979;28;20228;-66
2022/12/10 11:51:03;;;;;;;95.20;31.60;;;;;;;;;;4994962;28;20231;-66
2022/12/10 11:53:29;;;;;;;89.77;30.80;;;;;;;;;;4993192;28;20225;-66
2022/12/10 11:55:55;;;;;;;80.90;28.80;;;;;;;;;;4998465;28;20575;-66
2022/12/10 11:58:33;;;;;;;82.17;29.20;;;;;;;;;;5013789;28;20312;-66
2022/12/10 12:01:02;;;;;;;78.07;28.47;;;;;;;;;;4979018;28;20214;-66
2022/12/10 12:03:34;;;;;;;75.23;27.93;;;;;;;;;;4983345;28;20752;-66
2022/12/10 12:06:04;;;;;;;78.73;27.87;;;;;;;;;;4974474;28;20214;-66
2022/12/10 12:08:38;;;;;;;77.57;26.97;;;;;;;;;;4980929;28;20751;-66
2022/12/10 12:11:16;;;;;;;79.53;27.67;;;;;;;;;;4980064;28;20263;-66
2022/12/10 12:13:52;;;;;;;82.63;28.33;;;;;;;;;;4979658;28;20213;-66
2022/12/10 12:16:19;;;;;;;72.73;27.73;;;;;;;;;;5000468;28;20586;-66
2022/12/10 12:18:47;;;;;;;81.63;29.30;;;;;;;;;;4993858;28;20271;-66
2022/12/10 12:21:14;;;;;;;75.67;26.77;;;;;;;;;;4993514;28;20221;-66
2022/12/10 12:23:40;;;;;;;76.63;27.80;;;;;;;;;;4993604;28;20212;-66
2022/12/10 12:26:07;;;;;;;77.90;29.03;;;;;;;;;;4994507;28;20271;-66
2022/12/10 12:28:39;;;;;;;81.97;27.17;;;;;;;;;;4992533;28;20569;-66
2022/12/10 12:31:06;;;;;;;83.83;27.27;;;;;;;;;;4992515;28;20272;-66
2022/12/10 12:33:35;;;;;;;76.17;26.07;;;;;;;;;;4993509;28;20205;-66
2022/12/10 12:36:10;;;;;;;76.03;26.87;;;;;;;;;;4992100;28;20217;-66
2022/12/10 12:38:42;;;;;;;88.87;27.03;;;;;;;;;;4993305;28;20354;-66
2022/12/10 12:41:11;;;;;;;86.80;28.60;;;;;;;;;;4994141;28;20224;-66
2022/12/10 12:43:37;;;;;;;96.37;28.33;;;;;;;;;;4992563;28;20255;-66
2022/12/10 12:46:02;;;;;;;81.30;27.60;;;;;;;;;;4993467;28;20242;-66
2022/12/10 12:48:32;;;;;;;84.47;28.27;;;;;;;;;;4993215;28;20320;-68
2022/12/10 12:51:01;;;;;;;97.27;29.10;;;;;;;;;;4999396;28;20213;-66
2022/12/10 12:53:27;;;;;;;84.10;26.77;;;;;;;;;;5012565;28;20208;-66
2022/12/10 12:55:59;;;;;;;89.03;29.07;;;;;;;;;;5001959;28;20368;-66
2022/12/10 12:58:31;;;;;;;70.20;25.23;;;;;;;;;;4993577;28;20577;-66
2022/12/10 13:00:57;;;;;;;69.83;24.60;;;;;;;;;;5004135;28;20224;-66
2022/12/10 13:03:32;;;;;;;68.17;25.13;;;;;;;;;;4991575;28;20217;-64
2022/12/10 13:06:11;;;;;;;63.90;22.30;;;;;;;;;;4993976;28;20215;-65
2022/12/10 13:08:41;;;;;;;80.25;32.45;;;;;;;;;;4983498;28;20426;-66
2022/12/10 13:11:10;;;;;;;67.43;25.20;;;;;;;;;;4963919;28;20229;-65
2022/12/10 13:13:37;;;;;;;89.27;26.03;;;;;;;;;;4961128;28;20588;-66
2022/12/10 13:16:26;;;;;;;77.87;26.43;;;;;;;;;;4971734;28;20617;-65
2022/12/10 13:18:54;;;;;;;73.87;25.73;;;;;;;;;;4986545;28;20236;-66
2022/12/10 13:21:26;;;;;;;105.33;26.73;;;;;;;;;;4985585;28;20251;-63
2022/12/10 13:23:54;;;;;;;74.47;25.93;;;;;;;;;;4987074;28;20252;-64
2022/12/10 13:26:24;;;;;;;74.20;26.47;;;;;;;;;;4973242;28;20217;-65
2022/12/10 13:28:50;;;;;;;64.83;22.73;;;;;;;;;;4986986;28;20267;-65
2022/12/10 13:31:15;;;;;;;68.90;23.97;;;;;;;;;;4972083;28;20312;-64
2022/12/10 13:33:46;;;;;;;65.57;23.37;;;;;;;;;;4960743;28;20313;-65
2022/12/10 13:36:11;;;;;;;70.07;24.10;;;;;;;;;;4979208;28;20224;-63
2022/12/10 13:38:40;;;;;;;69.93;24.80;;;;;;;;;;4982999;28;20232;-63
2022/12/10 13:44:24;;;;;;;73.97;26.23;;;;;;;;;;4967882;28;20248;-66
2022/12/10 13:46:58;;;;;;;81.03;24.93;;;;;;;;;;4985233;28;20214;-65
2022/12/10 13:49:25;;;;;;;82.30;25.90;;;;;;;;;;4986792;28;20728;-66
2022/12/10 13:51:53;;;;;;;67.63;23.87;;;;;;;;;;4985936;28;20236;-65
2022/12/10 13:54:29;;;;;;;71.10;25.67;;;;;;;;;;4967190;28;20244;-64
2022/12/10 13:56:58;;;;;;;75.30;25.98;;;;;;;;;;4960084;28;20537;-65
2022/12/10 13:59:27;;;;;;;66.33;23.80;;;;;;;;;;4972685;28;20567;-65
2022/12/10 14:02:03;;;;;;;64.50;24.00;;;;;;;;;;4984149;28;20256;-66
2022/12/10 14:04:35;;;;;;;69.30;24.40;;;;;;;;;;5005850;28;20223;-66
2022/12/10 14:07:00;;;;;;;73.33;22.93;;;;;;;;;;5004084;28;20219;-66
2022/12/10 14:09:29;;;;;;;66.93;22.50;;;;;;;;;;5004653;28;20208;-66
2022/12/10 14:11:56;;;;;;;64.73;21.90;;;;;;;;;;4989640;28;20236;-66
2022/12/10 14:14:24;;;;;;;77.70;23.43;;;;;;;;;;5004206;28;20240;-65
2022/12/10 14:16:49;;;;;;;83.37;22.43;;;;;;;;;;4999492;28;20236;-65
2022/12/10 14:19:15;;;;;;;68.40;22.50;;;;;;;;;;4998251;28;20228;-65
2022/12/10 14:21:41;;;;;;;76.93;23.30;;;;;;;;;;4997138;28;20212;-65
2022/12/10 14:24:24;;;;;;;98.90;24.10;;;;;;;;;;5001369;28;20641;-65
2022/12/10 14:26:54;;;;;;;70.57;22.40;;;;;;;;;;5005251;28;20228;-64
2022/12/10 14:29:20;;;;;;;60.67;22.10;;;;;;;;;;5004786;28;20315;-64
2022/12/10 14:31:49;;;;;;;62.97;21.77;;;;;;;;;;5005889;28;20309;-66